createdAt,value
2023-04-30T00:01:06.677Z,67.41
2023-04-30T00:03:35.361Z,67.30
2023-04-30T00:06:04.830Z,67.35
2023-04-30T00:08:33.669Z,67.26
2023-04-30T00:11:02.781Z,67.42
2023-04-30T00:13:31.837Z,67.76
2023-04-30T00:16:01.606Z,67.80
2023-04-30T00:18:30.787Z,67.65
2023-04-30T00:21:00.693Z,67.55
2023-04-30T00:23:30.914Z,67.59
2023-04-30T00:26:00.246Z,67.68
2023-04-30T00:28:29.613Z,67.62
2023-04-30T00:30:58.845Z,67.39
2023-04-30T00:33:28.778Z,67.46
2023-04-30T00:35:57.967Z,67.82
2023-04-30T00:38:27.220Z,67.83
2023-04-30T00:40:56.075Z,67.46
2023-04-30T00:43:25.399Z,67.16
2023-04-30T00:45:54.517Z,67.15
2023-04-30T00:48:23.584Z,67.35
2023-04-30T00:50:52.283Z,67.13
2023-04-30T00:53:21.200Z,66.74
2023-04-30T00:55:50.445Z,66.70
2023-04-30T00:58:20.027Z,67.19
2023-04-30T01:00:50.238Z,67.51
2023-04-30T01:03:20.603Z,67.58
2023-04-30T01:05:49.977Z,67.47
2023-04-30T01:08:18.646Z,67.66
2023-04-30T01:11:05.361Z,67.92
2023-04-30T01:13:44.128Z,68.03
2023-04-30T01:16:25.028Z,67.84
2023-04-30T01:19:02.536Z,67.74
2023-04-30T01:21:34.222Z,68.04
2023-04-30T01:24:41.287Z,68.57
2023-04-30T01:27:43.320Z,68.84
2023-04-30T01:30:13.885Z,68.80
2023-04-30T01:32:42.581Z,69.03
2023-04-30T01:35:11.146Z,69.44
2023-04-30T01:38:11.617Z,69.48
2023-04-30T01:41:05.609Z,69.60
2023-04-30T01:43:46.564Z,69.44
2023-04-30T01:46:42.469Z,69.63
2023-04-30T01:49:48.317Z,70.03
2023-04-30T01:52:34.352Z,70.47
2023-04-30T01:55:12.387Z,70.56
2023-04-30T01:57:47.424Z,70.46
2023-04-30T02:00:18.447Z,70.64
2023-04-30T02:02:47.104Z,70.50
2023-04-30T02:05:16.294Z,69.74
2023-04-30T02:07:48.814Z,69.38
2023-04-30T02:10:20.528Z,69.04
2023-04-30T02:12:49.776Z,69.20
2023-04-30T02:15:19.079Z,69.14
2023-04-30T02:17:48.116Z,68.80
2023-04-30T02:20:17.321Z,68.37
2023-04-30T02:22:46.200Z,67.82
2023-04-30T02:25:16.113Z,68.05
2023-04-30T02:27:45.121Z,68.07
2023-04-30T02:30:14.168Z,67.92
2023-04-30T02:32:42.985Z,67.58
2023-04-30T02:35:11.896Z,67.73
2023-04-30T02:37:41.418Z,67.76
2023-04-30T02:40:11.469Z,67.72
2023-04-30T02:42:40.780Z,67.85
2023-04-30T02:45:09.890Z,67.98
2023-04-30T02:47:38.606Z,68.32
2023-04-30T02:50:08.436Z,68.63
2023-04-30T02:52:37.861Z,68.67
2023-04-30T02:55:07.796Z,68.32
2023-04-30T02:57:36.670Z,68.40
2023-04-30T03:00:06.325Z,68.28
2023-04-30T03:02:35.185Z,68.48
2023-04-30T03:05:04.660Z,68.95
2023-04-30T03:07:33.849Z,69.06
2023-04-30T03:10:02.552Z,69.13
2023-04-30T03:12:31.726Z,69.41
2023-04-30T03:15:00.584Z,69.56
2023-04-30T03:17:29.830Z,69.70
2023-04-30T03:19:59.138Z,69.66
2023-04-30T03:22:28.410Z,69.52
2023-04-30T03:24:57.297Z,69.56
2023-04-30T03:27:26.132Z,69.59
2023-04-30T03:29:55.269Z,69.59
2023-04-30T03:32:24.390Z,69.28
2023-04-30T03:34:53.427Z,69.18
2023-04-30T03:37:22.390Z,69.41
2023-04-30T03:39:51.294Z,69.40
2023-04-30T03:42:20.158Z,69.57
2023-04-30T03:44:49.055Z,69.27
2023-04-30T03:47:17.728Z,68.92
2023-04-30T03:49:46.857Z,69.18
2023-04-30T03:52:15.733Z,69.41
2023-04-30T03:54:44.960Z,69.37
2023-04-30T03:57:14.616Z,69.36
2023-04-30T03:59:43.835Z,69.75
2023-04-30T04:02:13.377Z,70.25
2023-04-30T04:04:42.919Z,70.60
2023-04-30T04:07:12.618Z,70.65
2023-04-30T04:09:42.398Z,70.59
2023-04-30T04:12:11.739Z,70.77
2023-04-30T04:14:40.726Z,71.26
2023-04-30T04:17:09.643Z,71.54
2023-04-30T04:19:38.655Z,71.57
2023-04-30T04:22:08.131Z,71.53
2023-04-30T04:24:38.981Z,71.32
2023-04-30T04:27:07.983Z,71.49
2023-04-30T04:29:37.377Z,71.56
2023-04-30T04:32:06.927Z,71.37
2023-04-30T04:34:36.180Z,70.98
2023-04-30T04:37:05.090Z,70.58
2023-04-30T04:39:33.892Z,70.76
2023-04-30T04:42:03.007Z,70.76
2023-04-30T04:44:31.917Z,70.47
2023-04-30T04:47:00.499Z,70.08
2023-04-30T04:49:29.157Z,69.74
2023-04-30T04:51:57.950Z,69.63
2023-04-30T04:54:27.129Z,69.84
2023-04-30T04:56:56.005Z,69.50
2023-04-30T04:59:24.661Z,69.04
2023-04-30T05:01:53.531Z,68.74
2023-04-30T05:04:22.725Z,68.76
2023-04-30T05:06:51.393Z,68.29
2023-04-30T05:09:20.441Z,67.84
2023-04-30T05:11:49.797Z,67.28
2023-04-30T05:14:18.538Z,66.85
2023-04-30T05:16:48.188Z,66.51
2023-04-30T05:19:16.920Z,65.95
2023-04-30T05:21:47.308Z,65.74
2023-04-30T05:24:16.153Z,65.38
2023-04-30T05:26:45.447Z,65.53
2023-04-30T05:29:14.499Z,65.27
2023-04-30T05:31:43.787Z,64.95
2023-04-30T05:34:12.719Z,64.92
2023-04-30T05:36:43.126Z,65.17
2023-04-30T05:39:13.391Z,65.53
2023-04-30T05:41:43.065Z,65.69
2023-04-30T05:44:11.753Z,65.72
2023-04-30T05:46:40.884Z,65.80
2023-04-30T05:49:10.259Z,65.97
2023-04-30T05:51:39.415Z,66.12
2023-04-30T05:54:08.980Z,65.71
2023-04-30T05:56:38.285Z,65.27
2023-04-30T05:59:07.253Z,65.08
2023-04-30T06:01:36.645Z,65.20
2023-04-30T06:04:06.008Z,65.16
2023-04-30T06:06:35.216Z,64.99
2023-04-30T06:09:04.323Z,64.81
2023-04-30T06:11:33.736Z,64.60
2023-04-30T06:14:03.472Z,64.01
2023-04-30T06:16:33.034Z,63.43
2023-04-30T06:19:02.122Z,62.51
2023-04-30T06:21:31.105Z,61.31
2023-04-30T06:24:00.168Z,60.44
2023-04-30T06:26:28.715Z,59.69
2023-04-30T06:28:57.796Z,58.74
2023-04-30T06:31:26.888Z,58.32
2023-04-30T06:33:55.941Z,58.24
2023-04-30T06:36:24.984Z,58.07
2023-04-30T06:38:54.650Z,57.58
2023-04-30T06:41:24.135Z,57.12
2023-04-30T06:43:53.512Z,56.45
2023-04-30T06:46:23.113Z,55.82
2023-04-30T06:48:52.202Z,55.57
2023-04-30T06:51:21.380Z,55.26
2023-04-30T06:53:50.489Z,55.10
2023-04-30T06:56:24.281Z,54.68
2023-04-30T06:58:55.394Z,53.87
2023-04-30T07:01:26.172Z,53.13
2023-04-30T07:03:56.350Z,52.74
2023-04-30T07:06:26.032Z,52.45
2023-04-30T07:08:55.337Z,52.06
2023-04-30T07:11:25.120Z,51.80
2023-04-30T07:13:54.015Z,51.57
2023-04-30T07:16:26.428Z,51.85
2023-04-30T07:18:56.070Z,51.29
2023-04-30T07:21:26.664Z,51.23
2023-04-30T07:23:55.783Z,50.83
2023-04-30T07:26:27.139Z,49.11
2023-04-30T07:28:56.344Z,48.43
2023-04-30T07:31:26.582Z,48.21
2023-04-30T07:33:57.128Z,47.69
2023-04-30T07:36:27.930Z,46.64
2023-04-30T07:38:57.409Z,46.08
2023-04-30T07:41:26.999Z,46.22
2023-04-30T07:43:56.071Z,46.01
2023-04-30T07:46:26.392Z,45.63
2023-04-30T07:48:56.047Z,45.50
2023-04-30T07:51:24.978Z,44.67
2023-04-30T07:53:54.152Z,43.63
2023-04-30T07:56:23.556Z,42.97
2023-04-30T07:58:54.222Z,42.26
2023-04-30T08:01:25.097Z,41.34
2023-04-30T08:03:55.110Z,40.46
2023-04-30T08:06:28.237Z,39.83
2023-04-30T08:08:59.735Z,39.54
2023-04-30T08:11:30.525Z,38.85
2023-04-30T08:14:00.938Z,38.23
2023-04-30T08:16:30.335Z,38.23
2023-04-30T08:19:01.250Z,37.65
2023-04-30T08:21:31.232Z,37.41
2023-04-30T08:24:00.513Z,36.89
2023-04-30T08:26:29.962Z,35.96
2023-04-30T08:28:59.282Z,35.35
2023-04-30T08:31:30.238Z,34.59
2023-04-30T08:33:59.666Z,34.31
2023-04-30T08:36:31.598Z,34.58
2023-04-30T08:39:02.664Z,33.19
2023-04-30T08:41:36.886Z,31.68
2023-04-30T08:44:08.342Z,30.71
2023-04-30T08:46:40.712Z,29.70
2023-04-30T08:49:12.055Z,29.33
2023-04-30T08:51:43.068Z,29.29
2023-04-30T08:54:15.151Z,28.63
2023-04-30T08:56:45.527Z,28.07
2023-04-30T08:59:15.169Z,28.05
2023-04-30T09:01:46.837Z,27.87
2023-04-30T09:04:17.198Z,27.40
2023-04-30T09:06:48.211Z,27.04
2023-04-30T09:09:19.814Z,27.44
2023-04-30T09:11:49.472Z,27.52
2023-04-30T09:14:26.762Z,27.99
2023-04-30T09:16:56.343Z,28.26
2023-04-30T09:19:32.605Z,27.92
2023-04-30T09:22:21.888Z,27.90
2023-04-30T09:24:54.035Z,28.25
2023-04-30T09:27:24.120Z,28.52
2023-04-30T09:29:54.852Z,28.58
2023-04-30T09:32:24.353Z,28.62
2023-04-30T09:34:53.637Z,28.76
2023-04-30T09:37:23.396Z,29.12
2023-04-30T09:39:57.478Z,29.33
2023-04-30T09:42:27.014Z,28.93
2023-04-30T09:44:56.753Z,27.47
2023-04-30T09:47:32.311Z,26.16
2023-04-30T09:50:01.793Z,25.06
2023-04-30T09:52:32.276Z,24.36
2023-04-30T09:55:01.231Z,23.90
2023-04-30T09:57:33.289Z,23.80
2023-04-30T10:00:03.546Z,23.89
2023-04-30T10:02:33.800Z,24.13
2023-04-30T10:05:03.612Z,24.39
2023-04-30T10:07:37.289Z,24.93
2023-04-30T10:10:11.276Z,25.82
2023-04-30T10:12:58.104Z,26.51
2023-04-30T10:15:33.396Z,27.61
2023-04-30T10:18:06.491Z,28.56
2023-04-30T10:20:40.635Z,29.24
2023-04-30T10:23:10.161Z,29.97
2023-04-30T10:25:41.305Z,30.78
2023-04-30T10:28:11.670Z,31.09
2023-04-30T10:30:45.655Z,31.77
2023-04-30T10:33:18.138Z,32.36
2023-04-30T10:36:09.478Z,32.90
2023-04-30T10:38:39.034Z,33.19
2023-04-30T10:41:10.747Z,33.64
2023-04-30T10:43:40.136Z,34.32
2023-04-30T10:46:10.623Z,34.63
2023-04-30T10:48:40.465Z,36.09
2023-04-30T10:51:09.933Z,37.10
2023-04-30T10:53:40.913Z,38.02
2023-04-30T10:56:10.894Z,39.72
2023-04-30T10:58:41.686Z,40.80
2023-04-30T11:01:17.962Z,41.60
2023-04-30T11:04:08.918Z,42.07
2023-04-30T11:07:02.974Z,42.82
2023-04-30T11:09:44.814Z,43.48
2023-04-30T11:12:28.461Z,44.26
2023-04-30T11:15:14.181Z,44.35
2023-04-30T11:17:48.933Z,44.91
2023-04-30T11:20:23.696Z,45.46
2023-04-30T11:23:12.371Z,45.87
2023-04-30T11:25:43.219Z,46.17
2023-04-30T11:28:39.033Z,46.73
2023-04-30T11:31:08.719Z,47.62
2023-04-30T11:33:41.832Z,47.71
2023-04-30T11:36:10.770Z,48.01
2023-04-30T11:38:40.701Z,48.01
2023-04-30T11:41:13.500Z,48.24
2023-04-30T11:43:43.940Z,48.04
2023-04-30T11:46:20.799Z,48.42
2023-04-30T11:48:50.590Z,48.47
2023-04-30T11:51:22.774Z,48.50
2023-04-30T11:53:54.141Z,48.68
2023-04-30T11:56:24.906Z,48.64
2023-04-30T11:58:56.646Z,48.96
2023-04-30T12:01:29.366Z,51.31
2023-04-30T12:03:59.844Z,52.96
2023-04-30T12:06:31.819Z,53.68
2023-04-30T12:09:04.554Z,54.80
2023-04-30T12:11:35.416Z,55.19
2023-04-30T12:14:13.336Z,54.33
2023-04-30T12:16:51.086Z,54.25
2023-04-30T12:19:22.615Z,54.31
2023-04-30T12:21:55.852Z,53.11
2023-04-30T12:24:28.342Z,53.25
2023-04-30T12:27:02.973Z,53.69
2023-04-30T12:29:32.553Z,54.70
2023-04-30T12:32:02.965Z,54.10
2023-04-30T12:34:33.890Z,53.00
2023-04-30T12:37:04.025Z,52.89
2023-04-30T12:39:38.053Z,53.15
2023-04-30T12:42:08.262Z,54.20
2023-04-30T12:44:45.758Z,54.60
2023-04-30T12:47:15.915Z,54.47
2023-04-30T12:49:49.736Z,54.48
2023-04-30T12:52:25.019Z,54.83
2023-04-30T12:54:56.792Z,55.51
2023-04-30T12:57:25.840Z,57.07
2023-04-30T13:00:01.956Z,58.48
2023-04-30T13:02:39.611Z,59.95
2023-04-30T13:05:15.968Z,60.72
2023-04-30T13:07:57.548Z,61.35
2023-04-30T13:10:28.164Z,62.92
2023-04-30T13:12:58.385Z,62.91
2023-04-30T13:15:29.421Z,63.52
2023-04-30T13:17:59.099Z,64.26
2023-04-30T13:20:28.328Z,64.21
2023-04-30T13:22:58.258Z,64.46
2023-04-30T13:25:27.645Z,64.68
2023-04-30T13:27:56.887Z,65.12
2023-04-30T13:30:27.516Z,65.66
2023-04-30T13:32:58.138Z,66.16
2023-04-30T13:35:28.765Z,65.84
2023-04-30T13:38:01.895Z,65.71
2023-04-30T13:40:32.294Z,66.06
2023-04-30T13:43:03.683Z,66.07
2023-04-30T13:45:34.847Z,66.37
2023-04-30T13:48:04.449Z,67.08
2023-04-30T13:50:34.539Z,67.01
2023-04-30T13:53:03.981Z,67.48
2023-04-30T13:55:34.117Z,67.69
2023-04-30T13:58:04.393Z,68.08
2023-04-30T14:00:34.202Z,67.47
2023-04-30T14:03:05.095Z,67.16
2023-04-30T14:05:37.265Z,66.84
2023-04-30T14:08:07.375Z,66.57
2023-04-30T14:10:36.788Z,66.68
2023-04-30T14:13:06.961Z,66.36
2023-04-30T14:15:36.533Z,66.53
2023-04-30T14:18:06.110Z,66.60
2023-04-30T14:20:35.176Z,66.62
2023-04-30T14:23:04.564Z,66.50
2023-04-30T14:25:33.749Z,66.33
2023-04-30T14:28:03.193Z,66.22
2023-04-30T14:30:32.699Z,66.88
2023-04-30T14:33:02.175Z,67.82
2023-04-30T14:35:32.054Z,67.60
2023-04-30T14:38:01.349Z,67.13
2023-04-30T14:40:31.819Z,67.21
2023-04-30T14:43:01.512Z,67.50
2023-04-30T14:45:31.319Z,68.15
2023-04-30T14:50:29.791Z,67.80
2023-04-30T14:52:59.032Z,67.61
2023-04-30T14:55:28.640Z,67.41
2023-04-30T14:57:57.842Z,67.29
2023-04-30T15:00:27.132Z,66.82
2023-04-30T15:02:56.460Z,66.51
2023-04-30T15:05:26.891Z,66.69
2023-04-30T15:07:56.149Z,66.81
2023-04-30T15:10:25.123Z,66.78
2023-04-30T15:12:54.234Z,66.28
2023-04-30T15:15:28.266Z,66.52
2023-04-30T15:18:02.488Z,67.10
2023-04-30T15:20:32.427Z,67.13
2023-04-30T15:23:03.056Z,67.24
2023-04-30T15:25:33.670Z,66.88
2023-04-30T15:28:02.647Z,66.47
2023-04-30T15:30:32.468Z,66.33
2023-04-30T15:33:01.808Z,65.94
2023-04-30T15:35:30.952Z,65.64
2023-04-30T15:38:00.368Z,65.56
2023-04-30T15:40:30.131Z,65.34
2023-04-30T15:42:59.474Z,65.07
2023-04-30T15:45:30.974Z,65.11
2023-04-30T15:48:01.313Z,64.76
2023-04-30T15:50:31.521Z,65.28
2023-04-30T15:53:01.026Z,65.73
2023-04-30T15:55:30.548Z,65.45
2023-04-30T15:57:59.896Z,65.29
2023-04-30T16:00:31.189Z,65.10
2023-04-30T16:03:03.476Z,66.00
2023-04-30T16:05:35.664Z,66.13
2023-04-30T16:08:10.558Z,65.65
2023-04-30T16:10:40.880Z,65.70
2023-04-30T16:13:10.740Z,66.19
2023-04-30T16:15:40.276Z,66.66
2023-04-30T16:18:11.076Z,66.93
2023-04-30T16:20:43.853Z,66.79
2023-04-30T16:23:13.980Z,66.83
2023-04-30T16:25:44.351Z,66.57
2023-04-30T16:28:14.799Z,66.60
2023-04-30T16:30:45.298Z,66.60
2023-04-30T16:33:15.108Z,66.52
2023-04-30T16:35:45.043Z,66.31
2023-04-30T16:38:15.027Z,66.37
2023-04-30T16:40:45.016Z,66.36
2023-04-30T16:43:14.634Z,66.27
2023-04-30T16:45:44.534Z,66.38
2023-04-30T16:48:14.414Z,66.43
2023-04-30T16:50:45.222Z,66.64
2023-04-30T16:53:15.570Z,66.92
2023-04-30T16:55:46.099Z,66.88
2023-04-30T16:58:16.656Z,66.89
2023-04-30T17:00:47.693Z,66.79
2023-04-30T17:03:17.018Z,66.44
2023-04-30T17:05:46.431Z,65.71
2023-04-30T17:08:15.344Z,65.28
2023-04-30T17:10:45.233Z,65.75
2023-04-30T17:13:15.349Z,66.06
2023-04-30T17:15:45.192Z,66.04
2023-04-30T17:18:16.082Z,66.87
2023-04-30T17:20:47.302Z,67.85
2023-04-30T17:23:17.428Z,67.89
2023-04-30T17:25:47.098Z,68.34
2023-04-30T17:28:17.013Z,68.42
2023-04-30T17:30:46.788Z,68.73
2023-04-30T17:33:16.013Z,69.42
2023-04-30T17:35:45.729Z,69.40
2023-04-30T17:38:16.501Z,69.57
2023-04-30T17:40:48.093Z,69.90
2023-04-30T17:43:20.379Z,69.90
2023-04-30T17:45:54.136Z,69.73
2023-04-30T17:48:23.237Z,69.99
2023-04-30T17:50:52.926Z,70.30
2023-04-30T17:53:24.399Z,70.84
2023-04-30T17:55:54.467Z,70.95
2023-04-30T17:58:23.980Z,70.86
2023-04-30T18:00:55.243Z,71.01
2023-04-30T18:03:25.702Z,71.31
2023-04-30T18:05:56.677Z,71.40
2023-04-30T18:08:27.580Z,71.11
2023-04-30T18:10:57.882Z,70.84
2023-04-30T18:13:28.218Z,70.94
2023-04-30T18:15:58.243Z,70.96
2023-04-30T18:18:28.722Z,70.92
2023-04-30T18:20:59.261Z,70.90
2023-04-30T18:23:28.538Z,71.04
2023-04-30T18:25:57.710Z,71.38
2023-04-30T18:28:27.948Z,71.60
2023-04-30T18:30:58.405Z,71.65
2023-04-30T18:33:29.051Z,71.84
2023-04-30T18:36:03.734Z,71.66
2023-04-30T18:38:36.344Z,71.83
2023-04-30T18:41:06.340Z,71.90
2023-04-30T18:43:38.907Z,71.62
2023-04-30T18:46:09.388Z,71.27
2023-04-30T18:48:40.185Z,71.41
2023-04-30T18:51:10.137Z,71.37
2023-04-30T18:53:39.959Z,71.31
2023-04-30T18:56:09.961Z,70.95
2023-04-30T18:58:40.431Z,70.58
2023-04-30T19:01:11.054Z,70.31
2023-04-30T19:03:41.774Z,70.42
2023-04-30T19:06:12.667Z,70.76
2023-04-30T19:08:44.835Z,70.91
2023-04-30T19:11:17.538Z,70.71
2023-04-30T19:13:48.956Z,71.03
2023-04-30T19:16:19.369Z,71.28
2023-04-30T19:18:48.464Z,71.57
2023-04-30T19:21:17.416Z,71.69
2023-04-30T19:23:48.424Z,71.93
2023-04-30T19:26:20.087Z,71.75
2023-04-30T19:28:50.876Z,71.69
2023-04-30T19:31:23.364Z,71.73
2023-04-30T19:34:03.618Z,71.94
2023-04-30T19:36:33.230Z,71.94
2023-04-30T19:39:06.250Z,72.28
2023-04-30T19:41:35.421Z,72.22
2023-04-30T19:44:07.610Z,72.15
2023-04-30T19:46:39.348Z,72.56
2023-04-30T19:49:10.035Z,72.84
2023-04-30T19:51:40.224Z,72.95
2023-04-30T19:54:14.826Z,72.92
2023-04-30T19:56:44.888Z,72.83
2023-04-30T19:59:14.740Z,72.73
2023-04-30T20:01:43.768Z,73.18
2023-04-30T20:04:13.086Z,73.08
2023-04-30T20:06:42.483Z,73.09
2023-04-30T20:09:12.329Z,73.26
2023-04-30T20:11:41.277Z,73.41
2023-04-30T20:14:10.761Z,73.45
2023-04-30T20:16:39.567Z,73.38
2023-04-30T20:19:08.736Z,73.70
2023-04-30T20:21:37.917Z,73.76
2023-04-30T20:24:07.461Z,73.17
2023-04-30T20:26:36.107Z,72.73
2023-04-30T20:29:05.123Z,72.33
2023-04-30T20:31:35.619Z,72.41
2023-04-30T20:34:05.191Z,72.01
2023-04-30T20:36:35.036Z,71.86
2023-04-30T20:39:04.705Z,71.61
2023-04-30T20:41:33.662Z,71.40
2023-04-30T20:44:02.503Z,71.36
2023-04-30T20:46:32.522Z,71.95
2023-04-30T20:49:04.949Z,72.12
2023-04-30T20:51:34.428Z,72.05
2023-04-30T20:54:04.274Z,71.96
2023-04-30T20:56:34.000Z,71.94
2023-04-30T20:59:05.393Z,72.06
2023-04-30T21:01:34.913Z,72.62
2023-04-30T21:04:05.168Z,72.70
2023-04-30T21:06:34.499Z,72.96
2023-04-30T21:09:03.627Z,72.49
2023-04-30T21:11:33.498Z,72.38
2023-04-30T21:14:02.706Z,72.57
2023-04-30T21:16:32.169Z,72.40
2023-04-30T21:19:01.899Z,72.39
2023-04-30T21:21:32.264Z,72.51
2023-04-30T21:24:01.991Z,72.43
2023-04-30T21:26:32.574Z,72.33
2023-04-30T21:29:05.116Z,72.74
2023-04-30T21:31:37.439Z,73.11
2023-04-30T21:34:08.807Z,73.51
2023-04-30T21:36:38.715Z,73.69
2023-04-30T21:39:07.776Z,73.81
2023-04-30T21:41:38.613Z,73.89
2023-04-30T21:44:08.844Z,73.92
2023-04-30T21:46:38.636Z,73.71
2023-04-30T21:49:08.386Z,73.63
2023-04-30T21:51:38.238Z,73.71
2023-04-30T21:54:07.737Z,73.53
2023-04-30T21:56:37.578Z,73.49
2023-04-30T21:59:07.447Z,72.98
2023-04-30T22:01:36.516Z,72.92
2023-04-30T22:04:05.862Z,73.21
2023-04-30T22:06:35.434Z,73.15
2023-04-30T22:09:05.276Z,72.88
2023-04-30T22:11:34.423Z,73.03
2023-04-30T22:14:04.545Z,73.46
2023-04-30T22:16:33.942Z,73.67
2023-04-30T22:19:03.614Z,73.86
2023-04-30T22:21:33.572Z,74.10
2023-04-30T22:24:03.752Z,73.98
2023-04-30T22:26:32.718Z,73.98
2023-04-30T22:29:02.288Z,74.14
2023-04-30T22:31:31.393Z,73.90
2023-04-30T22:34:01.715Z,73.50
2023-04-30T22:36:30.473Z,73.02
2023-04-30T22:39:00.329Z,72.66
2023-04-30T22:41:31.087Z,72.77
2023-04-30T22:44:01.710Z,72.75
2023-04-30T22:46:33.796Z,72.94
2023-04-30T22:49:03.145Z,72.46
2023-04-30T22:51:32.768Z,71.97
2023-04-30T22:54:02.025Z,72.18
2023-04-30T22:56:31.381Z,72.66
2023-04-30T22:59:01.933Z,72.64
2023-04-30T23:01:31.363Z,72.46
2023-04-30T23:04:01.041Z,72.64
2023-04-30T23:06:33.012Z,72.52
2023-04-30T23:09:02.016Z,72.73
2023-04-30T23:11:30.890Z,72.72
2023-04-30T23:14:01.287Z,72.91
2023-04-30T23:16:30.249Z,72.30
2023-04-30T23:19:00.841Z,71.77
2023-04-30T23:21:29.776Z,71.71
2023-04-30T23:23:58.676Z,71.97
2023-04-30T23:26:27.844Z,72.21
2023-04-30T23:28:59.211Z,72.19
2023-04-30T23:31:29.431Z,71.95
2023-04-30T23:33:58.786Z,71.87
2023-04-30T23:36:28.266Z,72.06
2023-04-30T23:38:58.435Z,72.19
2023-04-30T23:41:27.465Z,72.51
2023-04-30T23:43:56.572Z,72.20
2023-04-30T23:46:25.552Z,72.08
2023-04-30T23:48:54.561Z,72.29
2023-04-30T23:51:24.073Z,72.49
2023-04-30T23:53:53.361Z,72.02
2023-04-30T23:56:22.382Z,72.00
2023-04-30T23:58:51.207Z,71.61
